Time;durP1;ratioP1;P1;durP2;ratioP2;P2;SDS_P1;SDS_P2;PMS_P1;PMS_P2;Temp;Humidity;BMP_temperature;BMP_pressure;BME280_temperature;BME280_humidity;BME280_pressure;Samples;Min_cycle;Max_cycle;Signal;HPM_P1;HPM_P2
2023/01/18 00:00:39;;;;;;;5.55;2.17;;;-0.10;99.90;;;;;;5111489;27;20053;-84
2023/01/18 00:03:07;;;;;;;5.90;2.08;;;-0.10;99.90;;;;;;5110368;27;20482;-85
2023/01/18 00:05:38;;;;;;;6.57;2.50;;;0.90;99.90;;;;;;5094433;27;20039;-85
2023/01/18 00:08:04;;;;;;;5.88;2.45;;;0.00;99.90;;;;;;5128748;27;20047;-84
2023/01/18 00:10:30;;;;;;;4.18;2.28;;;0.00;99.90;;;;;;5094260;27;20061;-85
2023/01/18 00:12:57;;;;;;;4.97;2.33;;;0.00;99.90;;;;;;5110778;27;20096;-84
2023/01/18 00:15:23;;;;;;;3.78;2.17;;;-0.10;99.90;;;;;;5093431;27;20042;-84
2023/01/18 00:17:52;;;;;;;9.35;3.22;;;0.00;99.90;;;;;;5129633;27;20044;-85
2023/01/18 00:20:20;;;;;;;6.20;2.35;;;0.00;99.90;;;;;;5109806;27;20035;-84
2023/01/18 00:22:47;;;;;;;4.50;2.00;;;0.00;99.90;;;;;;5111511;27;20290;-84
2023/01/18 00:25:13;;;;;;;3.65;2.47;;;0.00;99.90;;;;;;5128214;27;20458;-84
2023/01/18 00:27:43;;;;;;;3.72;2.42;;;0.00;99.90;;;;;;5111162;27;20176;-84
2023/01/18 00:30:09;;;;;;;8.52;2.63;;;0.00;99.90;;;;;;5108719;27;20047;-84
2023/01/18 00:32:36;;;;;;;4.18;2.10;;;0.00;99.90;;;;;;5128629;27;20104;-84
2023/01/18 00:35:06;;;;;;;6.22;2.42;;;1.10;99.90;;;;;;5111092;27;20104;-84
2023/01/18 00:37:32;;;;;;;7.10;2.70;;;0.00;99.90;;;;;;5127880;27;20070;-85
2023/01/18 00:39:58;;;;;;;6.20;1.98;;;0.00;99.90;;;;;;5111396;27;20558;-84
2023/01/18 00:45:08;;;;;;;3.85;2.45;;;0.90;99.90;;;;;;5128511;27;20032;-84
2023/01/18 00:47:34;;;;;;;6.40;2.47;;;0.00;99.90;;;;;;5110866;27;20500;-84
2023/01/18 00:50:00;;;;;;;10.07;2.50;;;0.00;99.90;;;;;;5109488;27;20053;-84
2023/01/18 00:52:26;;;;;;;5.90;2.22;;;1.30;99.90;;;;;;5093803;27;20142;-84
2023/01/18 00:54:52;;;;;;;3.20;1.75;;;0.20;99.90;;;;;;5091934;27;20043;-84
2023/01/18 00:57:18;;;;;;;4.97;2.70;;;-1.30;99.90;;;;;;5093825;27;20096;-84
2023/01/18 00:59:45;;;;;;;6.47;2.30;;;-0.10;99.90;;;;;;5109560;27;20486;-84
2023/01/18 01:02:11;;;;;;;5.70;2.08;;;0.10;99.90;;;;;;5127977;27;20413;-84
2023/01/18 01:07:21;;;;;;;8.70;2.75;;;-0.10;99.90;;;;;;5127805;27;20047;-84
2023/01/18 01:09:47;;;;;;;5.80;2.22;;;-0.10;99.90;;;;;;5093095;27;20138;-84
2023/01/18 01:26:07;;;;;;;3.50;2.37;;;-0.20;99.90;;;;;;5113875;27;20095;-83
2023/01/18 01:28:34;;;;;;;6.13;2.25;;;-0.30;99.90;;;;;;5109392;27;20035;-83
2023/01/18 01:31:02;;;;;;;4.55;2.03;;;0.60;99.90;;;;;;5110056;27;20055;-84
2023/01/18 01:33:29;;;;;;;4.70;2.17;;;-0.30;99.90;;;;;;5108263;27;20050;-84
2023/01/18 01:35:56;;;;;;;6.93;2.50;;;-0.30;99.90;;;;;;5093153;27;20066;-84
2023/01/18 01:38:22;;;;;;;6.90;2.67;;;-0.30;99.90;;;;;;5108283;27;20048;-84
2023/01/18 01:40:56;;;;;;;6.20;2.35;;;-0.30;99.90;;;;;;5108778;27;20047;-84
2023/01/18 01:43:47;;;;;;;4.18;2.42;;;0.70;99.90;;;;;;5092436;27;20043;-84
2023/01/18 01:46:41;;;;;;;5.57;2.38;;;-0.30;99.90;;;;;;5127027;27;20398;-84
2023/01/18 01:49:27;;;;;;;6.00;2.22;;;-0.30;99.90;;;;;;5127605;27;20183;-84
2023/01/18 01:52:14;;;;;;;4.13;2.30;;;-0.30;99.90;;;;;;5094124;27;20043;-83
2023/01/18 01:54:48;;;;;;;4.82;2.85;;;-0.30;99.90;;;;;;5108025;27;20047;-84
2023/01/18 01:57:23;;;;;;;4.90;2.63;;;-0.30;99.90;;;;;;5127890;27;20043;-83
2023/01/18 01:59:54;;;;;;;5.45;2.53;;;-0.30;99.90;;;;;;5126632;27;20096;-84
2023/01/18 02:02:20;;;;;;;7.03;2.22;;;-0.30;99.90;;;;;;5127297;27;20043;-83
2023/01/18 02:04:52;;;;;;;4.40;2.65;;;-0.30;99.90;;;;;;5091892;27;20047;-83
2023/01/18 02:07:22;;;;;;;5.82;2.65;;;-0.30;99.90;;;;;;5108067;27;20466;-83
2023/01/18 02:09:50;;;;;;;6.07;2.70;;;-0.30;99.90;;;;;;5127957;27;20611;-84
2023/01/18 02:12:16;;;;;;;6.00;2.28;;;-0.30;99.90;;;;;;5126026;27;20123;-84
2023/01/18 02:14:42;;;;;;;4.88;2.55;;;-0.30;99.90;;;;;;5109171;27;20122;-84
2023/01/18 02:17:32;;;;;;;9.63;3.10;;;-0.30;99.90;;;;;;5090764;27;20502;-84
2023/01/18 02:20:37;;;;;;;6.35;2.28;;;-0.40;99.90;;;;;;5107661;27;20049;-83
2023/01/18 02:23:31;;;;;;;6.10;2.25;;;-0.20;99.90;;;;;;5127110;27;20439;-83
2023/01/18 02:26:25;;;;;;;5.78;2.55;;;-0.20;99.90;;;;;;5092433;27;20051;-83
2023/01/18 02:29:16;;;;;;;4.63;2.97;;;-0.30;99.90;;;;;;5090637;28;20051;-83
2023/01/18 02:32:01;;;;;;;7.93;2.33;;;-0.30;99.90;;;;;;5108674;27;20096;-83
2023/01/18 02:34:27;;;;;;;4.70;2.60;;;-0.20;99.90;;;;;;5108036;28;20043;-83
2023/01/18 02:37:24;;;;;;;5.68;2.60;;;-0.30;99.90;;;;;;5126297;28;20092;-83
2023/01/18 02:39:54;;;;;;;5.07;2.47;;;-0.30;99.90;;;;;;5127118;28;20053;-83
2023/01/18 02:48:09;;;;;;;6.22;2.35;;;-0.30;99.90;;;;;;5126860;28;20035;-83
2023/01/18 02:50:35;;;;;;;8.82;2.63;;;-0.20;99.90;;;;;;5107342;28;20446;-83
2023/01/18 02:53:01;;;;;;;4.65;2.33;;;-0.30;99.90;;;;;;5109372;27;20183;-84
2023/01/18 02:55:36;;;;;;;10.05;2.70;;;0.90;99.90;;;;;;5111486;27;20130;-83
2023/01/18 02:58:11;;;;;;;4.43;2.38;;;-0.30;99.90;;;;;;5094906;27;20521;-83
2023/01/18 03:00:43;;;;;;;7.10;2.55;;;-0.30;99.90;;;;;;5112253;27;20051;-83
2023/01/18 03:03:10;;;;;;;5.85;2.83;;;-0.30;99.90;;;;;;5129778;27;20051;-83
2023/01/18 03:05:38;;;;;;;5.53;2.60;;;-0.30;99.90;;;;;;5112806;27;20051;-83
2023/01/18 03:08:23;;;;;;;4.50;2.25;;;-0.30;99.90;;;;;;5094005;27;20112;-83
2023/01/18 03:11:00;;;;;;;9.57;2.78;;;-0.30;99.90;;;;;;5095099;27;20042;-83
2023/01/18 03:13:47;;;;;;;8.00;2.97;;;0.00;99.90;;;;;;5112564;27;20039;-83
2023/01/18 03:16:26;;;;;;;5.25;2.83;;;0.20;99.90;;;;;;5110947;27;20085;-83
2023/01/18 03:19:01;;;;;;;5.18;2.47;;;-0.30;99.90;;;;;;5130690;27;20047;-83
2023/01/18 03:21:43;;;;;;;6.10;3.08;;;-0.30;99.90;;;;;;5130457;27;20051;-83
2023/01/18 03:24:10;;;;;;;5.68;3.00;;;-0.30;99.90;;;;;;5111288;27;20039;-83
2023/01/18 03:26:43;;;;;;;10.70;2.85;;;0.90;99.90;;;;;;5112577;27;20358;-83
2023/01/18 03:35:02;;;;;;;5.47;2.58;;;1.00;99.90;;;;;;5114863;27;20443;-83
2023/01/18 03:37:36;;;;;;;5.38;2.78;;;-0.20;99.90;;;;;;5129148;27;20039;-83
2023/01/18 03:40:07;;;;;;;5.38;2.78;;;-0.10;99.90;;;;;;5112428;27;20076;-84
2023/01/18 03:42:58;;;;;;;8.40;2.95;;;-0.20;99.90;;;;;;5111101;27;20460;-83
2023/01/18 03:45:38;;;;;;;5.43;3.13;;;-0.30;99.90;;;;;;5110929;27;20432;-83
2023/01/18 03:48:06;;;;;;;5.28;3.00;;;-0.20;99.90;;;;;;5112234;27;20067;-83
2023/01/18 03:50:51;;;;;;;4.38;2.67;;;-0.30;99.90;;;;;;5093356;27;20627;-83
2023/01/18 03:53:39;;;;;;;5.75;2.75;;;-0.30;99.90;;;;;;5111779;27;20071;-83
2023/01/18 03:56:33;;;;;;;4.53;2.63;;;-0.30;99.90;;;;;;5111612;27;20054;-83
2023/01/18 03:59:01;;;;;;;4.78;2.92;;;-0.30;99.90;;;;;;5128873;27;20036;-84
2023/01/18 04:01:27;;;;;;;5.32;3.13;;;-0.30;99.90;;;;;;5111583;27;20050;-83
2023/01/18 04:03:53;;;;;;;9.05;3.95;;;-0.30;99.90;;;;;;5092779;27;20043;-83
2023/01/18 04:06:21;;;;;;;5.80;2.70;;;-0.30;99.90;;;;;;5093593;27;20039;-83
2023/01/18 04:08:49;;;;;;;5.85;3.25;;;-0.30;99.90;;;;;;5110738;27;20050;-83
2023/01/18 04:11:14;;;;;;;9.10;3.13;;;-0.40;99.90;;;;;;5129036;27;20043;-83
2023/01/18 04:13:40;;;;;;;7.10;3.40;;;0.10;99.90;;;;;;5130223;27;20042;-84
2023/01/18 04:16:06;;;;;;;6.10;3.58;;;-0.40;99.90;;;;;;5109924;27;20043;-83
2023/01/18 04:18:32;;;;;;;5.82;3.50;;;-0.40;99.90;;;;;;5129967;27;20572;-83
2023/01/18 04:20:58;;;;;;;6.70;4.10;;;-0.40;99.90;;;;;;5076060;27;20039;-83
2023/01/18 04:23:23;;;;;;;7.78;3.63;;;-0.20;99.90;;;;;;5077267;27;20047;-84
2023/01/18 04:25:50;;;;;;;8.70;3.42;;;-0.50;99.90;;;;;;5093464;27;20040;-83
2023/01/18 04:28:24;;;;;;;4.32;2.97;;;-0.40;99.90;;;;;;5110131;27;20566;-83
2023/01/18 04:30:51;;;;;;;4.82;3.65;;;-0.40;99.90;;;;;;5111495;27;20047;-84
2023/01/18 04:33:19;;;;;;;6.30;4.00;;;-0.40;99.90;;;;;;5092797;27;20042;-84
2023/01/18 04:35:48;;;;;;;5.70;3.35;;;-0.20;99.90;;;;;;5093843;27;20474;-83
2023/01/18 04:38:15;;;;;;;8.30;4.43;;;-0.40;99.90;;;;;;5093527;27;20537;-83
2023/01/18 04:40:41;;;;;;;5.75;3.85;;;-0.50;99.90;;;;;;5093318;27;20046;-83
2023/01/18 04:43:06;;;;;;;8.80;3.53;;;-0.40;99.90;;;;;;5110199;27;20051;-84
2023/01/18 04:45:32;;;;;;;7.10;3.70;;;-0.50;99.90;;;;;;5109736;27;20061;-84
2023/01/18 04:47:58;;;;;;;7.00;4.13;;;0.30;99.90;;;;;;5110961;27;20058;-83
2023/01/18 04:50:24;;;;;;;7.63;3.70;;;-0.50;99.90;;;;;;5109778;27;20585;-83
2023/01/18 04:52:49;;;;;;;6.95;4.00;;;-0.20;99.90;;;;;;5110608;27;20478;-84
2023/01/18 04:55:15;;;;;;;5.40;3.85;;;-0.50;99.90;;;;;;5075340;27;20042;-83
2023/01/18 04:57:42;;;;;;;9.93;4.55;;;-0.40;99.90;;;;;;5093027;27;20086;-83
2023/01/18 05:00:10;;;;;;;6.35;3.70;;;-0.40;99.90;;;;;;5093232;27;20054;-84
2023/01/18 05:02:36;;;;;;;7.70;4.47;;;-0.40;99.90;;;;;;5109206;27;20047;-84
2023/01/18 05:05:03;;;;;;;9.50;3.50;;;-0.40;99.90;;;;;;5076848;27;20047;-83
2023/01/18 05:07:30;;;;;;;5.00;3.45;;;-0.40;99.90;;;;;;5127744;27;20118;-83
2023/01/18 05:09:55;;;;;;;6.85;4.07;;;-0.40;99.90;;;;;;5076549;27;20080;-83
2023/01/18 05:12:22;;;;;;;8.48;4.15;;;1.00;99.90;;;;;;5108947;27;20143;-84
2023/01/18 05:14:47;;;;;;;8.93;3.75;;;-0.40;99.90;;;;;;5075841;27;20039;-83
2023/01/18 05:17:13;;;;;;;9.27;4.15;;;-0.40;99.90;;;;;;5108365;27;20043;-83
2023/01/18 05:19:39;;;;;;;8.88;4.57;;;-0.40;99.90;;;;;;5127733;27;20042;-83
2023/01/18 05:22:05;;;;;;;10.07;4.03;;;0.00;99.90;;;;;;5128250;27;20043;-83
2023/01/18 05:24:31;;;;;;;7.53;4.32;;;-0.40;99.90;;;;;;5108722;27;20509;-83
2023/01/18 05:26:57;;;;;;;10.05;4.50;;;-0.50;99.90;;;;;;5093530;27;20095;-83
2023/01/18 05:29:24;;;;;;;8.00;4.15;;;-0.40;99.90;;;;;;5108434;27;20403;-84
2023/01/18 05:31:51;;;;;;;8.15;3.97;;;-0.30;99.90;;;;;;5076166;27;20035;-83
2023/01/18 05:34:17;;;;;;;9.20;4.50;;;0.70;99.90;;;;;;5091980;27;20043;-83
2023/01/18 05:36:43;;;;;;;8.35;5.05;;;0.20;99.90;;;;;;5127605;27;20053;-84
2023/01/18 05:39:10;;;;;;;10.95;4.88;;;-0.30;99.90;;;;;;5127900;27;20031;-83
2023/01/18 05:41:36;;;;;;;8.57;4.68;;;-0.20;99.90;;;;;;5091649;27;20139;-84
2023/01/18 05:44:02;;;;;;;10.20;4.78;;;-0.30;99.90;;;;;;5092490;27;20178;-86
2023/01/18 05:46:27;;;;;;;8.32;4.78;;;-0.30;99.90;;;;;;5108243;27;20039;-84
2023/01/18 05:48:57;;;;;;;12.77;4.32;;;-0.30;99.90;;;;;;5109178;27;20084;-84
2023/01/18 05:51:23;;;;;;;13.07;5.15;;;-0.30;99.90;;;;;;5108659;27;20051;-83
2023/01/18 05:53:49;;;;;;;8.30;4.45;;;-0.30;99.90;;;;;;5108291;27;20046;-85
2023/01/18 05:56:15;;;;;;;7.13;4.85;;;-0.20;99.90;;;;;;5109595;27;20180;-83
2023/01/18 05:58:41;;;;;;;9.35;4.90;;;-0.20;99.90;;;;;;5091192;27;20054;-84
2023/01/18 06:01:07;;;;;;;7.25;4.55;;;1.10;99.90;;;;;;5092622;27;20039;-83
2023/01/18 06:03:33;;;;;;;8.25;5.15;;;-0.30;99.90;;;;;;5090721;27;20082;-83
2023/01/18 06:05:59;;;;;;;7.30;4.97;;;-0.30;99.90;;;;;;5108872;27;20039;-85
2023/01/18 06:08:25;;;;;;;16.35;4.95;;;1.00;99.90;;;;;;5091644;27;20055;-83
2023/01/18 06:10:55;;;;;;;11.43;5.45;;;-0.30;99.90;;;;;;5108029;27;20394;-82
2023/01/18 06:13:22;;;;;;;7.32;4.25;;;-0.30;99.90;;;;;;5108643;27;20047;-83
2023/01/18 06:15:48;;;;;;;11.65;5.18;;;-0.40;99.90;;;;;;5107971;27;20065;-83
2023/01/18 06:18:14;;;;;;;9.27;5.22;;;-0.30;99.90;;;;;;5109059;27;20447;-83
2023/01/18 06:20:39;;;;;;;10.65;5.07;;;-0.40;99.90;;;;;;5073632;27;20039;-84
2023/01/18 06:23:05;;;;;;;14.63;5.28;;;-0.30;99.90;;;;;;5091844;27;20061;-84
2023/01/18 06:25:31;;;;;;;11.35;5.18;;;-0.30;99.90;;;;;;5108191;28;20035;-85
2023/01/18 06:27:58;;;;;;;7.75;5.30;;;-0.30;99.90;;;;;;5090296;27;20125;-87
2023/01/18 06:30:24;;;;;;;11.77;4.95;;;-0.30;99.90;;;;;;5092145;27;20055;-83
2023/01/18 06:32:50;;;;;;;10.73;4.72;;;-0.30;99.90;;;;;;5126123;27;20541;-84
2023/01/18 06:35:16;;;;;;;12.02;5.35;;;-0.30;99.90;;;;;;5092041;28;20051;-87
2023/01/18 06:37:44;;;;;;;15.77;6.03;;;-0.30;99.90;;;;;;5090451;27;20053;-83
2023/01/18 06:40:10;;;;;;;9.93;5.03;;;0.80;99.90;;;;;;5091468;28;20149;-83
2023/01/18 06:42:36;;;;;;;12.00;5.97;;;-0.20;99.90;;;;;;5107322;28;20043;-84
2023/01/18 06:45:02;;;;;;;8.70;5.07;;;-0.20;99.90;;;;;;5126335;27;20058;-81
2023/01/18 06:47:27;;;;;;;9.73;4.95;;;-0.20;99.90;;;;;;5091219;28;20047;-83
2023/01/18 06:49:54;;;;;;;9.48;4.45;;;0.90;99.90;;;;;;5107766;28;20164;-83
2023/01/18 06:52:20;;;;;;;8.98;5.03;;;-0.20;99.90;;;;;;5108725;28;20040;-85
2023/01/18 06:54:46;;;;;;;10.85;5.93;;;0.30;99.90;;;;;;5073304;28;20047;-82
2023/01/18 06:57:11;;;;;;;11.60;5.00;;;-0.20;99.90;;;;;;5109069;28;20039;-82
2023/01/18 06:59:38;;;;;;;8.27;5.28;;;0.30;99.90;;;;;;5107578;28;20073;-82
2023/01/18 07:02:04;;;;;;;8.00;5.13;;;-0.20;99.90;;;;;;5126647;28;20510;-81
2023/01/18 07:04:31;;;;;;;12.77;6.25;;;-0.30;99.90;;;;;;5107827;28;20195;-82
2023/01/18 07:06:57;;;;;;;8.85;5.45;;;0.20;99.90;;;;;;5126269;28;20045;-82
2023/01/18 07:09:23;;;;;;;14.40;6.03;;;-0.90;99.90;;;;;;5074464;28;20031;-82
2023/01/18 07:11:49;;;;;;;10.55;6.05;;;-0.30;99.90;;;;;;5125899;28;20116;-82
2023/01/18 07:14:15;;;;;;;9.27;5.30;;;-0.20;99.90;;;;;;5108465;28;20486;-82
2023/01/18 07:16:40;;;;;;;12.05;5.70;;;-0.30;99.90;;;;;;5107311;28;20092;-82
2023/01/18 07:19:06;;;;;;;8.75;4.80;;;-0.30;99.90;;;;;;5107936;28;20086;-82
2023/01/18 07:21:32;;;;;;;8.32;5.20;;;0.40;99.90;;;;;;5126566;28;20397;-82
2023/01/18 07:23:58;;;;;;;9.32;5.70;;;-0.30;99.90;;;;;;5107539;28;20099;-82
2023/01/18 07:26:24;;;;;;;8.80;5.38;;;-0.30;99.90;;;;;;5108173;28;20142;-82
2023/01/18 07:28:53;;;;;;;10.77;5.30;;;-0.30;99.90;;;;;;5089845;28;20047;-82
2023/01/18 07:31:19;;;;;;;11.73;5.65;;;-0.30;99.90;;;;;;5108213;28;20058;-82
2023/01/18 07:33:45;;;;;;;9.02;5.40;;;1.00;99.90;;;;;;5089853;28;20039;-82
2023/01/18 07:36:11;;;;;;;8.63;5.53;;;-0.30;99.90;;;;;;5090781;28;20370;-84
2023/01/18 07:38:37;;;;;;;19.05;5.53;;;-0.40;99.90;;;;;;5125597;27;20404;-84
2023/01/18 07:41:07;;;;;;;8.68;5.50;;;-0.40;99.90;;;;;;5093973;27;20066;-84
2023/01/18 07:43:34;;;;;;;9.13;5.38;;;-0.40;99.90;;;;;;5130009;27;20150;-84
2023/01/18 07:46:02;;;;;;;7.95;5.07;;;-0.40;99.90;;;;;;5093902;27;20153;-84
2023/01/18 07:48:29;;;;;;;11.48;5.53;;;-0.10;99.90;;;;;;5130659;27;20279;-84
2023/01/18 07:50:56;;;;;;;9.65;5.68;;;0.90;99.90;;;;;;5129068;27;20039;-84
2023/01/18 07:53:23;;;;;;;8.88;5.22;;;-0.30;99.90;;;;;;5129820;27;20043;-84
2023/01/18 07:55:49;;;;;;;11.30;5.80;;;-0.30;99.90;;;;;;5129611;27;20050;-84
2023/01/18 07:58:16;;;;;;;9.88;5.45;;;-0.30;99.90;;;;;;5129394;27;20047;-84
2023/01/18 08:00:41;;;;;;;10.27;5.40;;;-0.30;99.90;;;;;;5129927;27;20079;-83
2023/01/18 08:03:11;;;;;;;9.68;5.03;;;-0.30;99.90;;;;;;5110096;27;20050;-84
2023/01/18 08:05:37;;;;;;;11.77;5.22;;;-0.30;99.90;;;;;;5129983;27;20079;-81
2023/01/18 08:08:03;;;;;;;12.05;5.43;;;-0.30;99.90;;;;;;5129038;27;20091;-81
2023/01/18 08:10:29;;;;;;;11.18;4.82;;;-0.30;99.90;;;;;;5111320;27;20122;-81
2023/01/18 08:12:54;;;;;;;10.30;5.13;;;-0.30;99.90;;;;;;5129560;27;20558;-81
2023/01/18 08:15:20;;;;;;;10.05;6.10;;;-0.20;99.90;;;;;;5110981;27;20068;-81
2023/01/18 08:17:46;;;;;;;9.82;5.05;;;-0.20;99.90;;;;;;5129429;27;20043;-81
2023/01/18 08:20:12;;;;;;;11.02;5.45;;;-0.20;99.90;;;;;;5109995;27;20043;-81
2023/01/18 08:22:37;;;;;;;6.65;4.45;;;-0.20;99.90;;;;;;5111111;27;20035;-81
2023/01/18 08:25:03;;;;;;;7.28;4.28;;;0.30;99.90;;;;;;5128554;27;20049;-81
2023/01/18 08:27:29;;;;;;;10.73;5.35;;;-0.20;99.90;;;;;;5129668;27;20130;-81
2023/01/18 08:29:56;;;;;;;8.90;4.38;;;-0.20;99.90;;;;;;5128756;27;20096;-81
2023/01/18 08:32:22;;;;;;;11.75;4.57;;;-0.10;99.90;;;;;;5109954;27;20483;-81
2023/01/18 08:34:47;;;;;;;8.57;4.35;;;-0.10;99.90;;;;;;5110464;27;20045;-81
2023/01/18 08:37:13;;;;;;;8.75;4.85;;;-0.10;99.90;;;;;;5128065;27;20035;-81
2023/01/18 08:39:39;;;;;;;9.55;4.53;;;0.00;99.90;;;;;;5111090;27;20043;-81
2023/01/18 08:42:05;;;;;;;8.90;4.05;;;0.00;99.90;;;;;;5092602;27;20047;-81
2023/01/18 08:44:30;;;;;;;9.63;4.93;;;1.50;99.90;;;;;;5110727;27;20035;-81
2023/01/18 08:46:56;;;;;;;7.15;4.38;;;0.20;99.90;;;;;;5128118;27;20387;-81
2023/01/18 08:49:22;;;;;;;6.15;3.92;;;0.20;99.90;;;;;;5092705;27;20058;-81
2023/01/18 08:51:48;;;;;;;9.20;3.58;;;0.20;99.90;;;;;;5092491;27;20081;-81
2023/01/18 08:54:13;;;;;;;6.63;3.90;;;0.20;99.90;;;;;;5129142;27;20035;-81
2023/01/18 08:56:39;;;;;;;7.97;3.92;;;0.30;99.90;;;;;;5134125;27;20126;-81
2023/01/18 08:59:08;;;;;;;8.43;3.58;;;1.50;99.90;;;;;;5111830;27;20122;-81
2023/01/18 09:01:34;;;;;;;9.32;4.22;;;0.40;99.90;;;;;;5111044;27;20088;-81
2023/01/18 09:04:00;;;;;;;8.27;3.97;;;0.50;99.90;;;;;;5106469;28;20134;-81
2023/01/18 09:06:30;;;;;;;8.70;4.22;;;0.60;99.90;;;;;;5106538;28;20048;-81
2023/01/18 09:08:56;;;;;;;5.95;3.20;;;0.60;99.90;;;;;;5107407;28;20461;-81
2023/01/18 09:11:23;;;;;;;9.10;4.38;;;0.70;99.90;;;;;;5106166;28;20054;-81
2023/01/18 09:13:52;;;;;;;12.02;4.22;;;0.70;99.90;;;;;;5108122;28;20046;-81
2023/01/18 09:16:18;;;;;;;7.78;4.38;;;0.80;99.90;;;;;;5105537;28;20054;-81
2023/01/18 09:18:44;;;;;;;7.15;4.00;;;0.90;99.90;;;;;;5107825;28;20036;-81
2023/01/18 09:21:12;;;;;;;10.55;4.35;;;0.90;99.90;;;;;;5088768;28;20116;-81
2023/01/18 09:23:39;;;;;;;10.23;4.53;;;1.00;99.90;;;;;;5107420;28;20051;-80
2023/01/18 09:26:17;;;;;;;11.25;4.80;;;1.10;99.90;;;;;;5106304;28;20081;-81
2023/01/18 09:28:46;;;;;;;6.97;3.15;;;2.00;99.90;;;;;;5105464;28;20139;-81
2023/01/18 09:31:11;;;;;;;8.77;4.20;;;1.20;99.90;;;;;;5106435;28;20078;-80
2023/01/18 09:33:38;;;;;;;6.50;3.75;;;1.30;99.90;;;;;;5105235;28;20074;-80
2023/01/18 09:36:08;;;;;;;10.02;4.03;;;1.50;99.90;;;;;;5089112;28;20051;-80
2023/01/18 09:38:35;;;;;;;6.50;3.60;;;1.40;99.90;;;;;;5106146;28;20436;-80
2023/01/18 09:41:04;;;;;;;8.50;3.38;;;1.40;99.90;;;;;;5106992;28;20047;-81
2023/01/18 09:43:38;;;;;;;14.05;3.55;;;1.50;99.90;;;;;;5107423;28;20050;-80
2023/01/18 09:46:04;;;;;;;;;;;1.50;99.90;;;;;;5105587;28;20482;-80
2023/01/18 09:48:36;;;;;;;7.88;3.05;;;1.60;99.90;;;;;;5107801;28;19919;-80
2023/01/18 09:51:08;;;;;;;6.97;3.55;;;1.70;99.90;;;;;;5106772;28;20081;-80
2023/01/18 09:53:58;;;;;;;8.60;5.18;;;1.80;99.90;;;;;;5107075;28;20397;-80
2023/01/18 09:56:48;;;;;;;9.43;3.60;;;1.80;99.90;;;;;;5106319;28;20120;-80
2023/01/18 09:59:20;;;;;;;9.73;4.93;;;1.90;99.90;;;;;;5104244;28;20043;-80
2023/01/18 10:01:47;;;;;;;4.23;2.43;;;2.00;99.90;;;;;;5105429;28;20043;-80
2023/01/18 10:04:35;;;;;;;8.00;3.67;;;2.10;99.90;;;;;;5119330;27;20321;-81
2023/01/18 10:07:07;;;;;;;7.20;3.75;;;2.10;99.90;;;;;;5126806;27;20065;-80
2023/01/18 10:09:39;;;;;;;8.00;3.78;;;2.40;99.90;;;;;;5128404;27;20066;-81
2023/01/18 10:12:22;;;;;;;8.67;2.43;;;2.30;99.90;;;;;;5091047;27;20497;-81
2023/01/18 10:15:00;;;;;;;8.73;3.25;;;2.30;99.90;;;;;;5091982;27;20490;-82
2023/01/18 10:17:35;;;;;;;9.02;4.10;;;2.40;99.90;;;;;;5108678;27;20497;-82
2023/01/18 10:20:18;;;;;;;6.78;3.67;;;2.50;99.90;;;;;;5091189;27;20510;-82
2023/01/18 10:22:57;;;;;;;8.88;3.58;;;2.50;99.90;;;;;;5109450;27;20397;-80
2023/01/18 10:25:26;;;;;;;9.00;4.47;;;2.60;99.90;;;;;;5091202;27;20042;-82
2023/01/18 10:27:57;;;;;;;8.00;3.70;;;2.60;99.90;;;;;;5126777;27;20127;-82
2023/01/18 10:30:47;;;;;;;9.05;3.53;;;2.60;99.90;;;;;;5109203;27;20404;-82
2023/01/18 10:33:41;;;;;;;8.82;3.22;;;2.70;99.90;;;;;;5107624;28;20050;-82
2023/01/18 10:36:11;;;;;;;;;;;2.90;99.90;;;;;;5109348;28;20481;-81
2023/01/18 10:38:39;;;;;;;7.65;3.20;;;2.80;99.90;;;;;;5108299;28;19920;-82
2023/01/18 10:41:21;;;;;;;6.10;2.88;;;2.80;99.90;;;;;;5126541;27;20051;-82
2023/01/18 10:43:47;;;;;;;5.50;2.75;;;2.90;99.90;;;;;;5109278;28;20043;-81
2023/01/18 10:46:18;;;;;;;8.23;3.20;;;3.60;99.90;;;;;;5126062;28;20478;-81
2023/01/18 10:48:52;;;;;;;7.75;3.00;;;3.00;99.90;;;;;;5108826;28;20047;-82
2023/01/18 10:51:35;;;;;;;7.70;4.88;;;3.00;99.90;;;;;;5091850;28;20046;-82
2023/01/18 10:54:16;;;;;;;7.50;3.45;;;3.10;99.90;;;;;;5126769;28;20047;-82
2023/01/18 10:56:43;;;;;;;8.77;3.70;;;3.10;99.90;;;;;;5108974;28;20123;-81
2023/01/18 10:59:29;;;;;;;8.65;3.90;;;3.20;99.90;;;;;;5125699;28;20047;-82
2023/01/18 11:01:56;;;;;;;6.95;3.38;;;3.20;99.90;;;;;;5126932;28;20067;-81
2023/01/18 11:04:33;;;;;;;5.32;3.30;;;3.30;99.90;;;;;;5107944;28;20590;-82
2023/01/18 11:07:01;;;;;;;5.68;3.40;;;3.30;99.90;;;;;;5108227;28;20043;-82
2023/01/18 11:09:36;;;;;;;7.28;3.67;;;3.40;99.90;;;;;;5108779;28;20069;-82
2023/01/18 11:12:40;;;;;;;9.95;4.15;;;3.40;99.90;;;;;;5090376;28;20104;-83
2023/01/18 11:15:21;;;;;;;8.43;3.30;;;3.40;99.90;;;;;;5110364;27;20043;-83
2023/01/18 11:17:53;;;;;;;9.43;3.63;;;3.60;99.90;;;;;;5131563;27;20108;-82
2023/01/18 11:20:34;;;;;;;8.17;3.30;;;3.50;99.90;;;;;;5129957;27;20051;-82
2023/01/18 11:23:21;;;;;;;9.15;3.40;;;3.60;99.90;;;;;;5112761;27;20082;-82
2023/01/18 11:25:55;;;;;;;6.72;2.80;;;3.60;99.90;;;;;;5111678;27;20108;-82
2023/01/18 11:28:43;;;;;;;6.80;2.95;;;3.70;99.90;;;;;;5111778;27;20482;-83
2023/01/18 11:31:21;;;;;;;5.80;3.25;;;3.70;99.90;;;;;;5112433;27;20092;-83
2023/01/18 11:33:51;;;;;;;5.60;3.08;;;3.80;99.90;;;;;;5130292;27;20038;-83
2023/01/18 11:36:18;;;;;;;7.82;3.58;;;3.90;99.90;;;;;;5130183;27;20050;-82
2023/01/18 11:38:45;;;;;;;5.65;2.95;;;4.10;99.90;;;;;;5130242;27;20058;-83
2023/01/18 11:41:19;;;;;;;7.70;3.35;;;3.90;99.90;;;;;;5110855;27;20043;-83
2023/01/18 11:44:02;;;;;;;6.20;2.83;;;3.90;99.90;;;;;;5130785;27;20050;-83
2023/01/18 11:46:49;;;;;;;8.98;3.25;;;3.90;99.90;;;;;;5129812;27;20039;-83
2023/01/18 11:49:22;;;;;;;6.57;2.90;;;4.00;99.90;;;;;;5129945;27;20347;-82
2023/01/18 11:52:01;;;;;;;8.23;3.33;;;4.00;99.90;;;;;;5130847;27;20043;-83
2023/01/18 11:54:38;;;;;;;4.05;2.47;;;4.10;99.90;;;;;;5129296;27;20091;-85
2023/01/18 11:57:06;;;;;;;6.03;2.70;;;4.10;99.90;;;;;;5130282;27;20461;-84
2023/01/18 11:59:38;;;;;;;10.02;3.35;;;4.20;99.90;;;;;;5129333;27;20212;-83
2023/01/18 12:02:12;;;;;;;8.05;3.70;;;4.30;99.90;;;;;;5129967;27;20401;-83
2023/01/18 12:04:45;;;;;;;5.82;2.90;;;4.30;99.90;;;;;;5108007;28;20095;-83
2023/01/18 12:07:44;;;;;;;8.80;2.88;;;5.00;99.90;;;;;;5109199;28;20043;-83
2023/01/18 12:10:22;;;;;;;5.32;2.33;;;4.40;99.90;;;;;;5110821;28;20102;-82
2023/01/18 12:13:21;;;;;;;9.77;2.72;;;4.40;99.90;;;;;;5093298;28;20055;-83
2023/01/18 12:16:06;;;;;;;4.82;2.70;;;4.50;99.90;;;;;;5107701;28;20051;-82
2023/01/18 12:18:54;;;;;;;8.00;2.83;;;4.50;99.90;;;;;;5109601;28;20100;-83
2023/01/18 12:21:29;;;;;;;4.32;2.35;;;4.60;99.90;;;;;;5090674;28;20044;-83
2023/01/18 12:23:57;;;;;;;5.07;2.45;;;4.60;99.90;;;;;;5107411;28;20433;-83
2023/01/18 12:26:48;;;;;;;7.72;3.13;;;5.90;99.90;;;;;;5107648;28;20063;-83
2023/01/18 12:29:54;;;;;;;7.38;2.97;;;4.60;99.90;;;;;;5108279;28;20514;-83
2023/01/18 12:32:22;;;;;;;5.78;2.88;;;4.70;99.90;;;;;;5089974;28;20392;-83
2023/01/18 12:35:06;;;;;;;5.95;2.60;;;4.70;99.90;;;;;;5109303;28;20062;-84
2023/01/18 12:38:09;;;;;;;7.03;2.38;;;4.80;99.90;;;;;;5089447;28;20217;-84
2023/01/18 12:41:05;;;;;;;7.78;3.63;;;4.80;99.90;;;;;;5106815;28;20081;-84
2023/01/18 12:43:56;;;;;;;5.75;2.63;;;4.80;99.90;;;;;;5109062;28;20134;-84
2023/01/18 12:46:39;;;;;;;6.65;3.30;;;4.80;99.90;;;;;;5105913;28;20051;-84
2023/01/18 12:49:17;;;;;;;8.98;2.72;;;4.90;99.90;;;;;;5108609;28;20048;-83
2023/01/18 12:51:46;;;;;;;10.93;3.58;;;6.00;99.90;;;;;;5090668;28;20441;-83
2023/01/18 12:54:41;;;;;;;7.50;2.90;;;4.90;99.90;;;;;;5106498;28;20423;-84
2023/01/18 12:57:09;;;;;;;4.25;2.38;;;5.00;99.90;;;;;;5104680;28;20131;-86
2023/01/18 12:59:51;;;;;;;8.45;2.63;;;6.20;99.90;;;;;;5106262;28;20478;-81
2023/01/18 13:02:32;;;;;;;4.43;2.38;;;5.00;99.90;;;;;;5107762;28;20039;-81
2023/01/18 13:05:04;;;;;;;5.97;2.72;;;5.00;99.90;;;;;;5106840;28;20414;-81
2023/01/18 13:07:57;;;;;;;4.88;2.15;;;5.50;99.90;;;;;;5107076;27;20043;-82
2023/01/18 13:10:27;;;;;;;3.50;2.33;;;4.90;99.90;;;;;;5099085;28;20134;-84
2023/01/18 13:12:57;;;;;;;4.65;2.28;;;6.20;99.90;;;;;;5107754;28;20274;-85
2023/01/18 13:15:34;;;;;;;6.25;3.00;;;4.80;99.90;;;;;;5105757;28;20096;-83
2023/01/18 13:18:14;;;;;;;4.32;2.60;;;4.70;99.90;;;;;;5108558;28;20040;-84
2023/01/18 13:20:59;;;;;;;10.30;3.42;;;4.60;99.90;;;;;;5088812;28;20051;-85
2023/01/18 13:23:43;;;;;;;7.93;2.95;;;5.10;99.90;;;;;;5107671;28;20055;-89
2023/01/18 13:26:09;;;;;;;6.97;2.30;;;4.50;99.90;;;;;;5107077;28;20067;-85
2023/01/18 13:28:35;;;;;;;7.03;2.50;;;4.90;99.90;;;;;;5105300;28;20044;-85
2023/01/18 13:31:04;;;;;;;4.53;2.05;;;4.90;99.90;;;;;;5108186;28;20556;-81
2023/01/18 13:33:39;;;;;;;8.20;3.40;;;4.50;99.90;;;;;;5104765;28;20040;-81
2023/01/18 13:36:13;;;;;;;9.98;3.45;;;4.40;99.90;;;;;;5088840;28;20044;-86
2023/01/18 13:38:57;;;;;;;5.88;3.00;;;4.50;99.90;;;;;;5105692;28;20550;-86
2023/01/18 13:41:28;;;;;;;4.78;2.85;;;4.50;99.90;;;;;;5088292;28;20066;-81
2023/01/18 13:44:01;;;;;;;5.72;2.60;;;4.40;99.90;;;;;;5105916;28;20084;-81